sensor_id;sensor_type;location;lat;lon;timestamp;temperature;humidity
41928;DHT22;27616;51.420;6.788;2023-04-15T00:01:34;8.40;99.90
41928;DHT22;27616;51.420;6.788;2023-04-15T00:04:01;8.30;99.90
41928;DHT22;27616;51.420;6.788;2023-04-15T00:06:27;8.40;99.90
41928;DHT22;27616;51.420;6.788;2023-04-15T00:08:53;8.40;99.90
41928;DHT22;27616;51.420;6.788;2023-04-15T00:11:18;8.30;99.90
41928;DHT22;27616;51.420;6.788;2023-04-15T00:13:45;8.30;99.90
41928;DHT22;27616;51.420;6.788;2023-04-15T00:16:11;8.30;99.90
41928;DHT22;27616;51.420;6.788;2023-04-15T00:18:36;8.30;99.90
41928;DHT22;27616;51.420;6.788;2023-04-15T00:21:03;8.30;99.90
41928;DHT22;27616;51.420;6.788;2023-04-15T00:23:29;8.30;99.90
41928;DHT22;27616;51.420;6.788;2023-04-15T00:25:55;8.20;99.90
41928;DHT22;27616;51.420;6.788;2023-04-15T00:28:21;8.30;99.90
41928;DHT22;27616;51.420;6.788;2023-04-15T00:30:47;8.30;99.90
41928;DHT22;27616;51.420;6.788;2023-04-15T00:33:13;8.30;99.90
41928;DHT22;27616;51.420;6.788;2023-04-15T00:35:41;8.30;99.90
41928;DHT22;27616;51.420;6.788;2023-04-15T00:38:07;8.20;99.90
41928;DHT22;27616;51.420;6.788;2023-04-15T00:40:33;8.30;99.90
41928;DHT22;27616;51.420;6.788;2023-04-15T00:43:00;8.20;99.90
41928;DHT22;27616;51.420;6.788;2023-04-15T00:45:25;8.30;99.90
41928;DHT22;27616;51.420;6.788;2023-04-15T00:47:54;8.20;99.90
41928;DHT22;27616;51.420;6.788;2023-04-15T00:50:20;8.20;99.90
41928;DHT22;27616;51.420;6.788;2023-04-15T00:52:47;8.20;99.90
41928;DHT22;27616;51.420;6.788;2023-04-15T00:55:14;8.20;99.90
41928;DHT22;27616;51.420;6.788;2023-04-15T00:57:39;8.10;99.90
41928;DHT22;27616;51.420;6.788;2023-04-15T01:00:06;8.20;99.90
41928;DHT22;27616;51.420;6.788;2023-04-15T01:02:36;8.10;99.90
41928;DHT22;27616;51.420;6.788;2023-04-15T01:05:03;8.00;99.90
41928;DHT22;27616;51.420;6.788;2023-04-15T01:07:30;8.10;99.90
41928;DHT22;27616;51.420;6.788;2023-04-15T01:09:56;8.10;99.90
41928;DHT22;27616;51.420;6.788;2023-04-15T01:12:23;8.00;99.90
41928;DHT22;27616;51.420;6.788;2023-04-15T01:14:50;8.00;99.90
41928;DHT22;27616;51.420;6.788;2023-04-15T01:17:16;7.90;99.90
41928;DHT22;27616;51.420;6.788;2023-04-15T01:19:42;7.90;99.90
41928;DHT22;27616;51.420;6.788;2023-04-15T01:22:08;7.90;99.90
41928;DHT22;27616;51.420;6.788;2023-04-15T01:27:15;7.80;99.90
41928;DHT22;27616;51.420;6.788;2023-04-15T01:29:41;7.80;99.90
41928;DHT22;27616;51.420;6.788;2023-04-15T01:32:07;7.70;99.90
41928;DHT22;27616;51.420;6.788;2023-04-15T01:34:33;7.60;99.90
41928;DHT22;27616;51.420;6.788;2023-04-15T01:36:59;7.60;99.90
41928;DHT22;27616;51.420;6.788;2023-04-15T01:39:25;7.50;99.90
41928;DHT22;27616;51.420;6.788;2023-04-15T01:41:50;7.50;99.90
41928;DHT22;27616;51.420;6.788;2023-04-15T01:44:16;7.40;99.90
41928;DHT22;27616;51.420;6.788;2023-04-15T01:46:42;7.40;99.90
41928;DHT22;27616;51.420;6.788;2023-04-15T01:49:07;7.30;99.90
41928;DHT22;27616;51.420;6.788;2023-04-15T01:51:33;7.30;99.90
41928;DHT22;27616;51.420;6.788;2023-04-15T01:53:59;7.20;99.90
41928;DHT22;27616;51.420;6.788;2023-04-15T01:56:25;7.20;99.90
41928;DHT22;27616;51.420;6.788;2023-04-15T01:58:51;7.20;99.90
41928;DHT22;27616;51.420;6.788;2023-04-15T02:01:17;7.10;99.90
41928;DHT22;27616;51.420;6.788;2023-04-15T02:03:44;7.10;99.90
41928;DHT22;27616;51.420;6.788;2023-04-15T02:06:11;7.10;99.90
41928;DHT22;27616;51.420;6.788;2023-04-15T02:08:36;7.00;99.90
41928;DHT22;27616;51.420;6.788;2023-04-15T02:11:05;7.00;99.90
41928;DHT22;27616;51.420;6.788;2023-04-15T02:13:31;7.00;99.90
41928;DHT22;27616;51.420;6.788;2023-04-15T02:15:57;7.00;99.90
41928;DHT22;27616;51.420;6.788;2023-04-15T02:18:24;7.00;99.90
41928;DHT22;27616;51.420;6.788;2023-04-15T02:20:51;7.00;99.90
41928;DHT22;27616;51.420;6.788;2023-04-15T02:23:17;7.00;99.90
41928;DHT22;27616;51.420;6.788;2023-04-15T02:25:44;6.90;99.90
41928;DHT22;27616;51.420;6.788;2023-04-15T02:28:10;6.90;99.90
41928;DHT22;27616;51.420;6.788;2023-04-15T02:30:36;6.90;99.90
41928;DHT22;27616;51.420;6.788;2023-04-15T02:33:02;6.90;99.90
41928;DHT22;27616;51.420;6.788;2023-04-15T02:35:27;6.90;99.90
41928;DHT22;27616;51.420;6.788;2023-04-15T02:37:54;6.80;99.90
41928;DHT22;27616;51.420;6.788;2023-04-15T02:40:20;6.80;99.90
41928;DHT22;27616;51.420;6.788;2023-04-15T02:42:46;6.80;99.90
41928;DHT22;27616;51.420;6.788;2023-04-15T02:45:14;6.80;99.90
41928;DHT22;27616;51.420;6.788;2023-04-15T02:47:42;6.80;99.90
41928;DHT22;27616;51.420;6.788;2023-04-15T02:50:10;6.80;99.90
41928;DHT22;27616;51.420;6.788;2023-04-15T02:52:41;6.80;99.90
41928;DHT22;27616;51.420;6.788;2023-04-15T02:55:09;6.70;99.90
41928;DHT22;27616;51.420;6.788;2023-04-15T02:57:36;6.70;99.90
41928;DHT22;27616;51.420;6.788;2023-04-15T03:00:06;6.70;99.90
41928;DHT22;27616;51.420;6.788;2023-04-15T03:02:35;6.70;99.90
41928;DHT22;27616;51.420;6.788;2023-04-15T03:05:02;6.70;99.90
41928;DHT22;27616;51.420;6.788;2023-04-15T03:07:29;6.70;99.90
41928;DHT22;27616;51.420;6.788;2023-04-15T03:09:55;6.70;99.90
41928;DHT22;27616;51.420;6.788;2023-04-15T03:12:21;6.70;99.90
41928;DHT22;27616;51.420;6.788;2023-04-15T03:14:47;6.70;99.90
41928;DHT22;27616;51.420;6.788;2023-04-15T03:17:14;6.70;99.90
41928;DHT22;27616;51.420;6.788;2023-04-15T03:19:43;6.70;99.90
41928;DHT22;27616;51.420;6.788;2023-04-15T03:22:10;6.60;99.90
41928;DHT22;27616;51.420;6.788;2023-04-15T03:24:36;6.60;99.90
41928;DHT22;27616;51.420;6.788;2023-04-15T03:27:01;6.60;99.90
41928;DHT22;27616;51.420;6.788;2023-04-15T03:29:28;6.60;99.90
41928;DHT22;27616;51.420;6.788;2023-04-15T03:31:53;6.50;99.90
41928;DHT22;27616;51.420;6.788;2023-04-15T03:34:19;6.50;99.90
41928;DHT22;27616;51.420;6.788;2023-04-15T03:36:45;6.50;99.90
41928;DHT22;27616;51.420;6.788;2023-04-15T03:39:11;6.50;99.90
41928;DHT22;27616;51.420;6.788;2023-04-15T03:41:37;6.50;99.90
41928;DHT22;27616;51.420;6.788;2023-04-15T03:44:03;6.40;99.90
41928;DHT22;27616;51.420;6.788;2023-04-15T03:46:28;6.40;99.90
41928;DHT22;27616;51.420;6.788;2023-04-15T03:48:54;6.30;99.90
41928;DHT22;27616;51.420;6.788;2023-04-15T03:51:20;6.30;99.90
41928;DHT22;27616;51.420;6.788;2023-04-15T03:53:46;6.30;99.90
41928;DHT22;27616;51.420;6.788;2023-04-15T03:56:11;6.30;99.90
41928;DHT22;27616;51.420;6.788;2023-04-15T03:58:37;6.30;99.90
41928;DHT22;27616;51.420;6.788;2023-04-15T04:01:03;6.30;99.90
41928;DHT22;27616;51.420;6.788;2023-04-15T04:03:28;6.30;99.90
41928;DHT22;27616;51.420;6.788;2023-04-15T04:05:54;6.20;99.90
41928;DHT22;27616;51.420;6.788;2023-04-15T04:08:20;6.20;99.90
41928;DHT22;27616;51.420;6.788;2023-04-15T04:10:46;6.20;99.90
41928;DHT22;27616;51.420;6.788;2023-04-15T04:13:12;6.20;99.90
41928;DHT22;27616;51.420;6.788;2023-04-15T04:15:37;6.20;99.90
41928;DHT22;27616;51.420;6.788;2023-04-15T04:18:03;6.20;99.90
41928;DHT22;27616;51.420;6.788;2023-04-15T04:20:29;6.30;99.90
41928;DHT22;27616;51.420;6.788;2023-04-15T04:22:56;6.20;99.90
41928;DHT22;27616;51.420;6.788;2023-04-15T04:25:22;6.20;99.90
41928;DHT22;27616;51.420;6.788;2023-04-15T04:27:49;6.20;99.90
41928;DHT22;27616;51.420;6.788;2023-04-15T04:30:14;6.20;99.90
41928;DHT22;27616;51.420;6.788;2023-04-15T04:32:40;6.20;99.90
41928;DHT22;27616;51.420;6.788;2023-04-15T04:35:06;6.20;99.90
41928;DHT22;27616;51.420;6.788;2023-04-15T04:37:32;6.20;99.90
41928;DHT22;27616;51.420;6.788;2023-04-15T04:39:58;6.20;99.90
41928;DHT22;27616;51.420;6.788;2023-04-15T04:42:24;6.20;99.90
41928;DHT22;27616;51.420;6.788;2023-04-15T04:44:49;6.20;99.90
41928;DHT22;27616;51.420;6.788;2023-04-15T04:47:16;6.20;99.90
41928;DHT22;27616;51.420;6.788;2023-04-15T04:49:41;6.10;99.90
41928;DHT22;27616;51.420;6.788;2023-04-15T04:52:07;6.10;99.90
41928;DHT22;27616;51.420;6.788;2023-04-15T04:54:33;6.10;99.90
41928;DHT22;27616;51.420;6.788;2023-04-15T04:56:58;6.00;99.90
41928;DHT22;27616;51.420;6.788;2023-04-15T04:59:25;6.10;99.90
41928;DHT22;27616;51.420;6.788;2023-04-15T05:01:51;6.00;99.90
41928;DHT22;27616;51.420;6.788;2023-04-15T05:04:17;6.10;99.90
41928;DHT22;27616;51.420;6.788;2023-04-15T05:06:42;6.10;99.90
41928;DHT22;27616;51.420;6.788;2023-04-15T05:09:08;6.00;99.90
41928;DHT22;27616;51.420;6.788;2023-04-15T05:11:34;6.10;99.90
41928;DHT22;27616;51.420;6.788;2023-04-15T05:14:00;6.00;99.90
41928;DHT22;27616;51.420;6.788;2023-04-15T05:16:27;6.10;99.90
41928;DHT22;27616;51.420;6.788;2023-04-15T05:18:52;6.10;99.90
41928;DHT22;27616;51.420;6.788;2023-04-15T05:21:18;6.10;99.90
41928;DHT22;27616;51.420;6.788;2023-04-15T05:23:44;6.10;99.90
41928;DHT22;27616;51.420;6.788;2023-04-15T05:26:10;6.10;99.90
41928;DHT22;27616;51.420;6.788;2023-04-15T05:28:36;6.20;99.90
41928;DHT22;27616;51.420;6.788;2023-04-15T05:31:02;6.20;99.90
41928;DHT22;27616;51.420;6.788;2023-04-15T05:33:28;6.20;99.90
41928;DHT22;27616;51.420;6.788;2023-04-15T05:35:54;6.20;99.90
41928;DHT22;27616;51.420;6.788;2023-04-15T05:38:22;6.30;99.90
41928;DHT22;27616;51.420;6.788;2023-04-15T05:40:48;6.30;99.90
41928;DHT22;27616;51.420;6.788;2023-04-15T05:43:14;6.40;99.90
41928;DHT22;27616;51.420;6.788;2023-04-15T05:45:40;6.50;99.90
41928;DHT22;27616;51.420;6.788;2023-04-15T05:48:06;6.60;99.90
41928;DHT22;27616;51.420;6.788;2023-04-15T05:50:31;6.70;99.90
41928;DHT22;27616;51.420;6.788;2023-04-15T05:52:57;6.90;99.90
41928;DHT22;27616;51.420;6.788;2023-04-15T05:55:23;7.20;99.90
41928;DHT22;27616;51.420;6.788;2023-04-15T05:57:48;7.50;99.90
41928;DHT22;27616;51.420;6.788;2023-04-15T06:00:14;7.70;99.90
41928;DHT22;27616;51.420;6.788;2023-04-15T06:02:40;7.80;99.90
41928;DHT22;27616;51.420;6.788;2023-04-15T06:05:07;7.90;99.90
41928;DHT22;27616;51.420;6.788;2023-04-15T06:07:36;8.00;99.90
41928;DHT22;27616;51.420;6.788;2023-04-15T06:10:03;8.00;99.90
41928;DHT22;27616;51.420;6.788;2023-04-15T06:12:29;8.10;99.90
41928;DHT22;27616;51.420;6.788;2023-04-15T06:14:55;8.20;99.90
41928;DHT22;27616;51.420;6.788;2023-04-15T06:17:20;8.40;99.90
41928;DHT22;27616;51.420;6.788;2023-04-15T06:19:46;8.50;99.90
41928;DHT22;27616;51.420;6.788;2023-04-15T06:22:12;8.40;99.90
41928;DHT22;27616;51.420;6.788;2023-04-15T06:24:37;8.40;99.90
41928;DHT22;27616;51.420;6.788;2023-04-15T06:27:03;8.40;99.90
41928;DHT22;27616;51.420;6.788;2023-04-15T06:29:29;8.60;99.90
41928;DHT22;27616;51.420;6.788;2023-04-15T06:31:55;8.70;99.90
41928;DHT22;27616;51.420;6.788;2023-04-15T06:34:21;8.80;99.90
41928;DHT22;27616;51.420;6.788;2023-04-15T06:36:46;8.80;99.90
41928;DHT22;27616;51.420;6.788;2023-04-15T06:39:12;8.90;99.90
41928;DHT22;27616;51.420;6.788;2023-04-15T06:41:38;8.90;99.90
41928;DHT22;27616;51.420;6.788;2023-04-15T06:44:04;8.90;99.90
41928;DHT22;27616;51.420;6.788;2023-04-15T06:46:30;9.10;99.90
41928;DHT22;27616;51.420;6.788;2023-04-15T06:48:56;9.10;99.90
41928;DHT22;27616;51.420;6.788;2023-04-15T06:51:21;9.30;99.90
41928;DHT22;27616;51.420;6.788;2023-04-15T06:53:48;9.30;99.90
41928;DHT22;27616;51.420;6.788;2023-04-15T06:56:14;9.40;99.90
41928;DHT22;27616;51.420;6.788;2023-04-15T06:58:40;9.60;99.90
41928;DHT22;27616;51.420;6.788;2023-04-15T07:01:05;9.80;99.90
41928;DHT22;27616;51.420;6.788;2023-04-15T07:03:31;10.00;99.90
41928;DHT22;27616;51.420;6.788;2023-04-15T07:05:57;10.00;99.90
41928;DHT22;27616;51.420;6.788;2023-04-15T07:08:23;10.20;99.90
41928;DHT22;27616;51.420;6.788;2023-04-15T07:10:50;10.30;99.90
41928;DHT22;27616;51.420;6.788;2023-04-15T07:13:16;10.30;99.90
41928;DHT22;27616;51.420;6.788;2023-04-15T07:15:41;10.50;99.90
41928;DHT22;27616;51.420;6.788;2023-04-15T07:18:07;10.80;99.90
41928;DHT22;27616;51.420;6.788;2023-04-15T07:20:34;10.80;99.90
41928;DHT22;27616;51.420;6.788;2023-04-15T07:23:00;11.00;99.90
41928;DHT22;27616;51.420;6.788;2023-04-15T07:25:26;11.10;99.90
41928;DHT22;27616;51.420;6.788;2023-04-15T07:27:52;11.20;99.90
41928;DHT22;27616;51.420;6.788;2023-04-15T07:30:18;11.40;99.90
41928;DHT22;27616;51.420;6.788;2023-04-15T07:32:43;11.40;99.90
41928;DHT22;27616;51.420;6.788;2023-04-15T07:35:10;11.30;99.90
41928;DHT22;27616;51.420;6.788;2023-04-15T07:37:36;11.50;99.90
41928;DHT22;27616;51.420;6.788;2023-04-15T07:40:02;11.50;99.90
41928;DHT22;27616;51.420;6.788;2023-04-15T07:42:32;11.80;99.90
41928;DHT22;27616;51.420;6.788;2023-04-15T07:44:58;12.00;99.90
41928;DHT22;27616;51.420;6.788;2023-04-15T07:47:24;12.10;99.90
41928;DHT22;27616;51.420;6.788;2023-04-15T07:49:50;12.10;99.90
41928;DHT22;27616;51.420;6.788;2023-04-15T07:52:16;12.00;99.90
41928;DHT22;27616;51.420;6.788;2023-04-15T07:54:41;11.90;99.90
41928;DHT22;27616;51.420;6.788;2023-04-15T07:57:07;11.80;99.90
41928;DHT22;27616;51.420;6.788;2023-04-15T07:59:33;11.80;99.90
41928;DHT22;27616;51.420;6.788;2023-04-15T08:01:59;11.90;99.90
41928;DHT22;27616;51.420;6.788;2023-04-15T08:04:24;11.90;99.90
41928;DHT22;27616;51.420;6.788;2023-04-15T08:06:50;12.00;99.90
41928;DHT22;27616;51.420;6.788;2023-04-15T08:09:17;12.00;99.90
41928;DHT22;27616;51.420;6.788;2023-04-15T08:11:42;12.00;99.90
41928;DHT22;27616;51.420;6.788;2023-04-15T08:14:08;12.20;99.90
41928;DHT22;27616;51.420;6.788;2023-04-15T08:16:34;12.00;99.90
41928;DHT22;27616;51.420;6.788;2023-04-15T08:19:00;12.10;99.90
41928;DHT22;27616;51.420;6.788;2023-04-15T08:21:26;12.20;99.90
41928;DHT22;27616;51.420;6.788;2023-04-15T08:23:52;12.30;99.90
41928;DHT22;27616;51.420;6.788;2023-04-15T08:26:19;12.40;99.90
41928;DHT22;27616;51.420;6.788;2023-04-15T08:28:46;12.50;99.90
41928;DHT22;27616;51.420;6.788;2023-04-15T08:31:16;12.40;99.90
41928;DHT22;27616;51.420;6.788;2023-04-15T08:33:42;12.40;99.90
41928;DHT22;27616;51.420;6.788;2023-04-15T08:36:07;12.30;99.90
41928;DHT22;27616;51.420;6.788;2023-04-15T08:38:34;12.40;99.90
41928;DHT22;27616;51.420;6.788;2023-04-15T08:41:04;12.60;99.90
41928;DHT22;27616;51.420;6.788;2023-04-15T08:43:34;12.70;99.90
41928;DHT22;27616;51.420;6.788;2023-04-15T08:46:03;12.80;99.90
41928;DHT22;27616;51.420;6.788;2023-04-15T08:48:32;12.70;99.90
41928;DHT22;27616;51.420;6.788;2023-04-15T08:50:59;12.70;99.90
41928;DHT22;27616;51.420;6.788;2023-04-15T08:53:27;12.50;99.90
41928;DHT22;27616;51.420;6.788;2023-04-15T08:55:56;12.40;99.90
41928;DHT22;27616;51.420;6.788;2023-04-15T08:58:23;12.30;99.90
41928;DHT22;27616;51.420;6.788;2023-04-15T09:00:49;12.20;99.90
41928;DHT22;27616;51.420;6.788;2023-04-15T09:03:15;12.30;99.90
41928;DHT22;27616;51.420;6.788;2023-04-15T09:05:42;12.50;99.90
41928;DHT22;27616;51.420;6.788;2023-04-15T09:08:08;12.70;99.90
41928;DHT22;27616;51.420;6.788;2023-04-15T09:10:34;12.80;99.90
41928;DHT22;27616;51.420;6.788;2023-04-15T09:13:00;13.00;99.90
41928;DHT22;27616;51.420;6.788;2023-04-15T09:15:26;13.30;99.90
41928;DHT22;27616;51.420;6.788;2023-04-15T09:17:54;13.20;99.90
41928;DHT22;27616;51.420;6.788;2023-04-15T09:20:21;13.40;99.90
41928;DHT22;27616;51.420;6.788;2023-04-15T09:22:48;13.80;99.90
41928;DHT22;27616;51.420;6.788;2023-04-15T09:25:23;13.70;99.90
41928;DHT22;27616;51.420;6.788;2023-04-15T09:27:51;13.80;99.90
41928;DHT22;27616;51.420;6.788;2023-04-15T09:30:17;13.50;99.90
41928;DHT22;27616;51.420;6.788;2023-04-15T09:32:54;13.60;99.90
41928;DHT22;27616;51.420;6.788;2023-04-15T09:35:21;13.50;99.90
41928;DHT22;27616;51.420;6.788;2023-04-15T09:37:51;13.70;99.90
41928;DHT22;27616;51.420;6.788;2023-04-15T09:40:39;13.70;99.90
41928;DHT22;27616;51.420;6.788;2023-04-15T09:43:06;13.90;99.90
41928;DHT22;27616;51.420;6.788;2023-04-15T09:45:33;13.90;99.90
41928;DHT22;27616;51.420;6.788;2023-04-15T09:48:14;13.70;99.90
41928;DHT22;27616;51.420;6.788;2023-04-15T09:50:41;13.40;99.90
41928;DHT22;27616;51.420;6.788;2023-04-15T09:53:14;13.30;99.90
41928;DHT22;27616;51.420;6.788;2023-04-15T09:55:44;13.30;99.90
41928;DHT22;27616;51.420;6.788;2023-04-15T09:58:20;13.30;99.90
41928;DHT22;27616;51.420;6.788;2023-04-15T10:00:47;13.40;99.90
41928;DHT22;27616;51.420;6.788;2023-04-15T10:03:20;13.50;99.90
41928;DHT22;27616;51.420;6.788;2023-04-15T10:05:47;13.70;99.90
41928;DHT22;27616;51.420;6.788;2023-04-15T10:08:16;13.60;99.90
41928;DHT22;27616;51.420;6.788;2023-04-15T10:10:45;13.70;99.90
41928;DHT22;27616;51.420;6.788;2023-04-15T10:13:22;13.90;99.90
41928;DHT22;27616;51.420;6.788;2023-04-15T10:16:00;13.60;99.90
41928;DHT22;27616;51.420;6.788;2023-04-15T10:18:31;13.40;99.90
41928;DHT22;27616;51.420;6.788;2023-04-15T10:21:00;13.20;99.90
41928;DHT22;27616;51.420;6.788;2023-04-15T10:23:26;13.10;99.90
41928;DHT22;27616;51.420;6.788;2023-04-15T10:25:53;12.80;99.90
41928;DHT22;27616;51.420;6.788;2023-04-15T10:28:19;12.70;99.90
41928;DHT22;27616;51.420;6.788;2023-04-15T10:30:47;12.70;99.90
41928;DHT22;27616;51.420;6.788;2023-04-15T10:33:16;12.80;99.90
41928;DHT22;27616;51.420;6.788;2023-04-15T10:35:44;13.10;99.90
41928;DHT22;27616;51.420;6.788;2023-04-15T10:38:38;13.20;99.90
41928;DHT22;27616;51.420;6.788;2023-04-15T10:41:21;13.10;99.90
41928;DHT22;27616;51.420;6.788;2023-04-15T10:44:00;13.00;99.90
41928;DHT22;27616;51.420;6.788;2023-04-15T10:46:41;12.90;99.90
41928;DHT22;27616;51.420;6.788;2023-04-15T10:49:15;12.80;99.90
41928;DHT22;27616;51.420;6.788;2023-04-15T10:51:45;12.80;99.90
41928;DHT22;27616;51.420;6.788;2023-04-15T10:54:29;12.60;99.90
41928;DHT22;27616;51.420;6.788;2023-04-15T10:59:30;12.50;99.90
41928;DHT22;27616;51.420;6.788;2023-04-15T11:02:01;12.30;99.90
41928;DHT22;27616;51.420;6.788;2023-04-15T11:04:52;12.20;99.90
41928;DHT22;27616;51.420;6.788;2023-04-15T11:12:38;12.20;99.90
41928;DHT22;27616;51.420;6.788;2023-04-15T11:15:30;12.40;99.90
41928;DHT22;27616;51.420;6.788;2023-04-15T11:18:13;12.50;99.90
41928;DHT22;27616;51.420;6.788;2023-04-15T11:20:41;12.40;99.90
41928;DHT22;27616;51.420;6.788;2023-04-15T11:23:08;12.30;99.90
41928;DHT22;27616;51.420;6.788;2023-04-15T11:25:34;12.20;99.90
41928;DHT22;27616;51.420;6.788;2023-04-15T11:28:02;12.30;99.90
41928;DHT22;27616;51.420;6.788;2023-04-15T11:30:30;12.20;99.90
41928;DHT22;27616;51.420;6.788;2023-04-15T11:33:01;12.20;99.90
41928;DHT22;27616;51.420;6.788;2023-04-15T11:35:29;12.30;99.90
41928;DHT22;27616;51.420;6.788;2023-04-15T11:37:55;12.40;99.90
41928;DHT22;27616;51.420;6.788;2023-04-15T11:40:25;12.60;99.90
41928;DHT22;27616;51.420;6.788;2023-04-15T11:43:17;12.60;99.90
41928;DHT22;27616;51.420;6.788;2023-04-15T11:45:58;12.40;99.90
41928;DHT22;27616;51.420;6.788;2023-04-15T11:48:26;12.40;99.90
41928;DHT22;27616;51.420;6.788;2023-04-15T11:50:54;12.50;99.90
41928;DHT22;27616;51.420;6.788;2023-04-15T11:53:20;12.50;99.90
41928;DHT22;27616;51.420;6.788;2023-04-15T11:55:47;12.50;99.90
41928;DHT22;27616;51.420;6.788;2023-04-15T11:58:17;12.50;99.90
41928;DHT22;27616;51.420;6.788;2023-04-15T12:00:57;12.40;99.90
41928;DHT22;27616;51.420;6.788;2023-04-15T12:06:46;12.40;99.90
41928;DHT22;27616;51.420;6.788;2023-04-15T12:11:32;12.80;99.90
41928;DHT22;27616;51.420;6.788;2023-04-15T12:14:11;12.90;99.90
41928;DHT22;27616;51.420;6.788;2023-04-15T12:16:41;12.70;99.90
41928;DHT22;27616;51.420;6.788;2023-04-15T12:19:12;12.60;99.90
41928;DHT22;27616;51.420;6.788;2023-04-15T12:21:41;12.60;99.90
41928;DHT22;27616;51.420;6.788;2023-04-15T12:24:09;12.30;99.90
41928;DHT22;27616;51.420;6.788;2023-04-15T12:26:42;12.10;99.90
41928;DHT22;27616;51.420;6.788;2023-04-15T12:29:09;11.90;99.90
41928;DHT22;27616;51.420;6.788;2023-04-15T12:31:36;11.80;99.90
41928;DHT22;27616;51.420;6.788;2023-04-15T12:34:02;11.90;99.90
41928;DHT22;27616;51.420;6.788;2023-04-15T12:36:29;12.00;99.90
41928;DHT22;27616;51.420;6.788;2023-04-15T12:39:04;12.00;99.90
41928;DHT22;27616;51.420;6.788;2023-04-15T12:41:32;12.00;99.90
41928;DHT22;27616;51.420;6.788;2023-04-15T12:43:58;12.20;99.90
41928;DHT22;27616;51.420;6.788;2023-04-15T12:46:25;11.90;99.90
41928;DHT22;27616;51.420;6.788;2023-04-15T12:48:51;11.80;99.90
41928;DHT22;27616;51.420;6.788;2023-04-15T12:51:18;11.80;99.90
41928;DHT22;27616;51.420;6.788;2023-04-15T12:53:45;11.90;99.90
41928;DHT22;27616;51.420;6.788;2023-04-15T12:56:12;12.00;99.90
41928;DHT22;27616;51.420;6.788;2023-04-15T12:58:38;12.10;99.90
41928;DHT22;27616;51.420;6.788;2023-04-15T13:01:03;12.10;99.90
41928;DHT22;27616;51.420;6.788;2023-04-15T13:03:29;12.10;99.90
41928;DHT22;27616;51.420;6.788;2023-04-15T13:05:55;12.20;99.90
41928;DHT22;27616;51.420;6.788;2023-04-15T13:08:22;12.30;99.90
41928;DHT22;27616;51.420;6.788;2023-04-15T13:10:48;12.30;99.90
41928;DHT22;27616;51.420;6.788;2023-04-15T13:13:14;12.30;99.90
41928;DHT22;27616;51.420;6.788;2023-04-15T13:15:40;12.10;99.90
41928;DHT22;27616;51.420;6.788;2023-04-15T13:18:06;11.80;99.90
41928;DHT22;27616;51.420;6.788;2023-04-15T13:20:32;11.60;99.90
41928;DHT22;27616;51.420;6.788;2023-04-15T13:22:57;11.50;99.90
41928;DHT22;27616;51.420;6.788;2023-04-15T13:25:23;11.60;99.90
41928;DHT22;27616;51.420;6.788;2023-04-15T13:27:50;11.60;99.90
41928;DHT22;27616;51.420;6.788;2023-04-15T13:30:16;11.50;99.90
41928;DHT22;27616;51.420;6.788;2023-04-15T13:32:42;11.40;99.90
41928;DHT22;27616;51.420;6.788;2023-04-15T13:35:08;11.50;99.90
41928;DHT22;27616;51.420;6.788;2023-04-15T13:37:33;11.60;99.90
41928;DHT22;27616;51.420;6.788;2023-04-15T13:39:59;11.50;99.90
41928;DHT22;27616;51.420;6.788;2023-04-15T13:42:25;11.60;99.90
41928;DHT22;27616;51.420;6.788;2023-04-15T13:44:52;11.50;99.90
41928;DHT22;27616;51.420;6.788;2023-04-15T13:47:20;11.50;99.90
41928;DHT22;27616;51.420;6.788;2023-04-15T13:49:46;11.60;99.90
41928;DHT22;27616;51.420;6.788;2023-04-15T13:52:12;11.50;99.90
41928;DHT22;27616;51.420;6.788;2023-04-15T13:54:38;11.50;99.90
41928;DHT22;27616;51.420;6.788;2023-04-15T13:57:04;11.40;99.90
41928;DHT22;27616;51.420;6.788;2023-04-15T13:59:32;11.30;99.90
41928;DHT22;27616;51.420;6.788;2023-04-15T14:01:58;11.10;99.90
41928;DHT22;27616;51.420;6.788;2023-04-15T14:04:23;11.10;99.90
41928;DHT22;27616;51.420;6.788;2023-04-15T14:06:50;11.10;99.90
41928;DHT22;27616;51.420;6.788;2023-04-15T14:09:15;11.20;99.90
41928;DHT22;27616;51.420;6.788;2023-04-15T14:11:41;11.20;99.90
41928;DHT22;27616;51.420;6.788;2023-04-15T14:14:07;11.20;99.90
41928;DHT22;27616;51.420;6.788;2023-04-15T14:16:33;11.20;99.90
41928;DHT22;27616;51.420;6.788;2023-04-15T14:18:59;11.20;99.90
41928;DHT22;27616;51.420;6.788;2023-04-15T14:21:25;11.30;99.90
41928;DHT22;27616;51.420;6.788;2023-04-15T14:23:52;11.30;99.90
41928;DHT22;27616;51.420;6.788;2023-04-15T14:26:18;11.30;99.90
41928;DHT22;27616;51.420;6.788;2023-04-15T14:28:45;11.30;99.90
41928;DHT22;27616;51.420;6.788;2023-04-15T14:31:10;11.30;99.90
41928;DHT22;27616;51.420;6.788;2023-04-15T14:33:36;11.10;99.90
41928;DHT22;27616;51.420;6.788;2023-04-15T14:36:02;11.10;99.90
41928;DHT22;27616;51.420;6.788;2023-04-15T14:38:28;11.10;99.90
41928;DHT22;27616;51.420;6.788;2023-04-15T14:40:54;11.20;99.90
41928;DHT22;27616;51.420;6.788;2023-04-15T14:43:20;11.20;99.90
41928;DHT22;27616;51.420;6.788;2023-04-15T14:45:46;11.30;99.90
41928;DHT22;27616;51.420;6.788;2023-04-15T14:48:12;11.20;99.90
41928;DHT22;27616;51.420;6.788;2023-04-15T14:50:38;11.10;99.90
41928;DHT22;27616;51.420;6.788;2023-04-15T14:53:04;11.10;99.90
41928;DHT22;27616;51.420;6.788;2023-04-15T14:55:30;11.10;99.90
41928;DHT22;27616;51.420;6.788;2023-04-15T14:57:55;11.10;99.90
41928;DHT22;27616;51.420;6.788;2023-04-15T15:00:21;11.00;99.90
41928;DHT22;27616;51.420;6.788;2023-04-15T15:02:47;11.10;99.90
41928;DHT22;27616;51.420;6.788;2023-04-15T15:05:13;11.00;99.90
41928;DHT22;27616;51.420;6.788;2023-04-15T15:07:38;11.00;99.90
41928;DHT22;27616;51.420;6.788;2023-04-15T15:10:05;11.10;99.90
41928;DHT22;27616;51.420;6.788;2023-04-15T15:12:32;11.00;99.90
41928;DHT22;27616;51.420;6.788;2023-04-15T15:14:57;10.80;99.90
41928;DHT22;27616;51.420;6.788;2023-04-15T15:17:23;10.80;99.90
41928;DHT22;27616;51.420;6.788;2023-04-15T15:19:49;10.90;99.90
41928;DHT22;27616;51.420;6.788;2023-04-15T15:22:15;10.90;99.90
41928;DHT22;27616;51.420;6.788;2023-04-15T15:24:41;10.90;99.90
41928;DHT22;27616;51.420;6.788;2023-04-15T15:27:07;11.00;99.90
41928;DHT22;27616;51.420;6.788;2023-04-15T15:29:32;10.90;99.90
41928;DHT22;27616;51.420;6.788;2023-04-15T15:31:58;10.80;99.90
41928;DHT22;27616;51.420;6.788;2023-04-15T15:34:24;10.70;99.90
41928;DHT22;27616;51.420;6.788;2023-04-15T15:36:49;10.70;99.90
41928;DHT22;27616;51.420;6.788;2023-04-15T15:39:15;10.70;99.90
41928;DHT22;27616;51.420;6.788;2023-04-15T15:41:41;10.70;99.90
41928;DHT22;27616;51.420;6.788;2023-04-15T15:44:07;10.60;99.90
41928;DHT22;27616;51.420;6.788;2023-04-15T15:46:32;10.60;99.90
41928;DHT22;27616;51.420;6.788;2023-04-15T15:48:58;10.60;99.90
41928;DHT22;27616;51.420;6.788;2023-04-15T15:51:24;10.50;99.90
41928;DHT22;27616;51.420;6.788;2023-04-15T15:53:51;10.40;99.90